createdAt,value
2022-08-23T00:00:44.369Z,101563.41
2022-08-23T00:01:48.306Z,101560.48
2022-08-23T00:02:53.060Z,101557.58
2022-08-23T00:03:57.683Z,101557.95
2022-08-23T00:05:08.145Z,101558.23
2022-08-23T00:06:12.906Z,101559.22
2022-08-23T00:07:16.741Z,101561.25
2022-08-23T00:08:19.455Z,101564.63
2022-08-23T00:09:23.004Z,101566.66
2022-08-23T00:10:25.747Z,101566.55
2022-08-23T00:11:28.484Z,101570.08
2022-08-23T00:12:31.265Z,101567.95
2022-08-23T00:13:47.780Z,101563.00
2022-08-23T00:14:52.556Z,101564.97
2022-08-23T00:15:56.361Z,101559.75
2022-08-23T00:17:00.022Z,101558.17
2022-08-23T00:18:03.186Z,101556.48
2022-08-23T00:19:07.526Z,101554.02
2022-08-23T00:20:12.338Z,101553.20
2022-08-23T00:21:15.143Z,101551.89
2022-08-23T00:22:17.815Z,101549.34
2022-08-23T00:23:20.531Z,101549.13
2022-08-23T00:24:24.434Z,101548.19
2022-08-23T00:25:27.259Z,101548.52
2022-08-23T00:27:08.189Z,101549.44
2022-08-23T00:28:12.514Z,101553.26
2022-08-23T00:29:18.577Z,101551.95
2022-08-23T00:30:21.444Z,101554.63
2022-08-23T00:31:25.171Z,101554.75
2022-08-23T00:32:32.444Z,101556.70
2022-08-23T00:33:35.360Z,101552.67
2022-08-23T00:34:38.339Z,101551.75
2022-08-23T00:35:41.026Z,101553.98
2022-08-23T00:36:45.023Z,101553.16
2022-08-23T00:37:51.623Z,101553.77
2022-08-23T00:39:11.364Z,101552.78
2022-08-23T00:40:18.112Z,101552.61
2022-08-23T00:41:24.559Z,101554.67
2022-08-23T00:42:52.956Z,101553.59
2022-08-23T00:44:14.796Z,101553.75
2022-08-23T00:45:38.127Z,101552.01
2022-08-23T00:47:02.056Z,101551.73
2022-08-23T00:48:05.484Z,101550.64
2022-08-23T00:49:11.156Z,101552.55
2022-08-23T00:50:25.794Z,101550.64
2022-08-23T00:51:52.067Z,101546.73
2022-08-23T00:53:12.136Z,101547.48
2022-08-23T00:54:16.744Z,101546.23
2022-08-23T00:55:21.178Z,101549.98
2022-08-23T00:56:25.464Z,101548.96
2022-08-23T00:57:31.237Z,101551.20
2022-08-23T00:58:34.159Z,101551.58
2022-08-23T00:59:36.852Z,101552.57
2022-08-23T01:00:39.732Z,101552.40
2022-08-23T01:01:44.162Z,101550.42
2022-08-23T01:02:48.483Z,101547.54
2022-08-23T01:03:57.158Z,101548.73
2022-08-23T01:05:07.703Z,101545.36
2022-08-23T01:06:13.850Z,101545.52
2022-08-23T01:07:25.399Z,101545.13
2022-08-23T01:08:29.651Z,101546.77
2022-08-23T01:09:32.438Z,101542.91
2022-08-23T01:10:37.989Z,101541.10
2022-08-23T01:11:49.479Z,101540.73
2022-08-23T01:13:08.342Z,101538.70
2022-08-23T01:14:12.009Z,101540.63
2022-08-23T01:15:21.365Z,101538.05
2022-08-23T01:16:27.867Z,101541.38
2022-08-23T01:17:35.454Z,101540.63
2022-08-23T01:18:38.486Z,101538.77
2022-08-23T01:19:46.693Z,101543.73
2022-08-23T01:21:00.115Z,101542.96
2022-08-23T01:22:10.236Z,101539.74
2022-08-23T01:23:31.543Z,101544.70
2022-08-23T01:25:06.582Z,101545.95
2022-08-23T01:25:58.463Z,101546.39
2022-08-23T01:27:01.230Z,101546.17
2022-08-23T01:28:04.725Z,101544.27
2022-08-23T01:29:08.051Z,101543.95
2022-08-23T01:30:12.551Z,101544.82
2022-08-23T01:31:45.654Z,101546.08
2022-08-23T01:32:50.533Z,101546.23
2022-08-23T01:34:01.203Z,101546.95
2022-08-23T01:35:04.864Z,101548.42
2022-08-23T01:36:10.997Z,101547.66
2022-08-23T01:37:14.855Z,101549.68
2022-08-23T01:38:17.703Z,101548.98
2022-08-23T01:39:21.806Z,101554.16
2022-08-23T01:40:24.826Z,101554.54
2022-08-23T01:41:27.874Z,101551.54
2022-08-23T01:42:31.151Z,101553.08
2022-08-23T01:43:34.228Z,101552.58
2022-08-23T01:44:37.023Z,101549.41
2022-08-23T01:45:40.038Z,101545.05
2022-08-23T01:46:46.066Z,101545.45
2022-08-23T01:47:48.859Z,101547.56
2022-08-23T01:48:52.464Z,101545.73
2022-08-23T01:49:55.354Z,101545.08
2022-08-23T01:50:58.037Z,101546.77
2022-08-23T01:52:00.868Z,101547.91
2022-08-23T01:53:04.183Z,101549.17
2022-08-23T01:54:07.730Z,101550.42
2022-08-23T01:55:10.614Z,101553.64
2022-08-23T01:56:15.316Z,101547.11
2022-08-23T01:57:18.088Z,101544.31
2022-08-23T01:58:21.452Z,101547.05
2022-08-23T01:59:24.597Z,101543.88
2022-08-23T02:00:35.640Z,101543.33
2022-08-23T02:01:38.466Z,101546.99
2022-08-23T02:02:41.616Z,101546.00
2022-08-23T02:03:45.901Z,101548.73
2022-08-23T02:04:53.074Z,101551.02
2022-08-23T02:05:56.373Z,101547.37
2022-08-23T02:06:59.161Z,101550.81
2022-08-23T02:08:21.939Z,101550.27
2022-08-23T02:09:25.943Z,101556.48
2022-08-23T02:10:33.066Z,101550.76
2022-08-23T02:11:42.366Z,101550.20
2022-08-23T02:12:47.007Z,101548.16
2022-08-23T02:13:52.849Z,101546.14
2022-08-23T02:14:56.818Z,101552.14
2022-08-23T02:16:02.401Z,101549.77
2022-08-23T02:17:05.902Z,101551.69
2022-08-23T02:18:08.626Z,101549.41
2022-08-23T02:19:12.706Z,101549.96
2022-08-23T02:20:15.538Z,101550.50
2022-08-23T02:21:19.809Z,101550.78
2022-08-23T02:22:22.645Z,101549.70
2022-08-23T02:23:25.360Z,101549.91
2022-08-23T02:24:28.277Z,101553.08
2022-08-23T02:25:31.529Z,101554.49
2022-08-23T02:26:35.824Z,101556.36
2022-08-23T02:27:42.911Z,101555.70
2022-08-23T02:28:50.724Z,101553.77
2022-08-23T02:29:54.099Z,101552.37
2022-08-23T02:30:57.210Z,101552.31
2022-08-23T02:32:00.874Z,101552.05
2022-08-23T02:33:03.823Z,101553.63
2022-08-23T02:34:11.159Z,101552.22
2022-08-23T02:35:14.586Z,101552.83
2022-08-23T02:37:25.503Z,101556.48
2022-08-23T02:38:28.444Z,101556.09
2022-08-23T02:39:31.291Z,101558.55
2022-08-23T02:40:35.309Z,101555.17
2022-08-23T02:41:38.619Z,101557.67
2022-08-23T02:42:42.958Z,101556.65
2022-08-23T02:43:46.632Z,101554.90
2022-08-23T02:44:49.618Z,101555.77
2022-08-23T02:45:53.323Z,101553.20
2022-08-23T02:46:56.135Z,101557.40
2022-08-23T02:48:00.110Z,101552.88
2022-08-23T02:49:08.733Z,101553.48
2022-08-23T02:50:11.849Z,101554.09
2022-08-23T02:51:14.784Z,101553.38
2022-08-23T02:52:17.716Z,101553.75
2022-08-23T02:53:20.564Z,101552.55
2022-08-23T02:54:23.671Z,101552.12
2022-08-23T02:55:26.973Z,101549.49
2022-08-23T02:56:30.771Z,101548.95
2022-08-23T02:57:34.415Z,101549.59
2022-08-23T02:58:38.312Z,101549.92
2022-08-23T02:59:42.634Z,101549.59
2022-08-23T03:00:49.168Z,101549.05
2022-08-23T03:01:52.052Z,101556.02
2022-08-23T03:03:00.007Z,101554.61
2022-08-23T03:04:03.882Z,101556.41
2022-08-23T03:05:08.432Z,101555.27
2022-08-23T03:06:24.438Z,101555.48
2022-08-23T03:07:29.414Z,101552.63
2022-08-23T03:08:32.483Z,101552.27
2022-08-23T03:09:35.350Z,101555.38
2022-08-23T03:10:42.111Z,101553.30
2022-08-23T03:11:46.652Z,101552.59
2022-08-23T03:12:49.750Z,101557.48
2022-08-23T03:13:53.209Z,101554.48
2022-08-23T03:14:56.369Z,101560.16
2022-08-23T03:16:00.250Z,101556.23
2022-08-23T03:17:03.107Z,101555.91
2022-08-23T03:18:06.004Z,101556.13
2022-08-23T03:19:09.680Z,101554.27
2022-08-23T03:20:12.799Z,101554.43
2022-08-23T03:21:16.095Z,101554.98
2022-08-23T03:22:19.260Z,101558.15
2022-08-23T03:23:22.152Z,101560.66
2022-08-23T03:24:25.487Z,101559.62
2022-08-23T03:25:28.704Z,101563.16
2022-08-23T03:26:44.009Z,101564.59
2022-08-23T03:27:46.932Z,101567.64
2022-08-23T03:28:49.881Z,101568.08
2022-08-23T03:29:52.960Z,101566.17
2022-08-23T03:30:57.193Z,101562.30
2022-08-23T03:32:00.497Z,101559.30
2022-08-23T03:33:04.113Z,101563.23
2022-08-23T03:34:06.988Z,101563.12
2022-08-23T03:35:10.951Z,101564.21
2022-08-23T03:36:19.180Z,101563.73
2022-08-23T03:37:31.367Z,101564.43
2022-08-23T03:38:35.041Z,101560.67
2022-08-23T03:39:39.159Z,101565.42
2022-08-23T03:40:42.759Z,101569.02
2022-08-23T03:41:45.633Z,101569.30
2022-08-23T03:42:48.979Z,101571.05
2022-08-23T03:43:52.821Z,101568.04
2022-08-23T03:45:02.223Z,101569.84
2022-08-23T03:46:08.065Z,101578.40
2022-08-23T03:47:12.967Z,101578.41
2022-08-23T03:48:17.563Z,101580.48
2022-08-23T03:49:20.511Z,101579.33
2022-08-23T03:50:28.057Z,101584.16
2022-08-23T03:51:31.808Z,101585.80
2022-08-23T03:52:34.809Z,101583.89
2022-08-23T03:53:37.553Z,101584.71
2022-08-23T03:54:41.088Z,101585.32
2022-08-23T03:55:45.223Z,101587.45
2022-08-23T03:56:52.468Z,101586.46
2022-08-23T03:57:55.670Z,101585.14
2022-08-23T03:58:59.720Z,101584.33
2022-08-23T04:00:02.648Z,101583.64
2022-08-23T04:01:06.082Z,101585.21
2022-08-23T04:02:09.237Z,101583.08
2022-08-23T04:03:12.329Z,101583.77
2022-08-23T04:04:30.203Z,101582.63
2022-08-23T04:05:51.561Z,101582.02
2022-08-23T04:06:56.368Z,101581.21
2022-08-23T04:07:59.649Z,101579.83
2022-08-23T04:09:02.999Z,101579.48
2022-08-23T04:10:07.224Z,101579.93
2022-08-23T04:11:12.221Z,101578.62
2022-08-23T04:12:17.479Z,101578.95
2022-08-23T04:13:21.145Z,101577.70
2022-08-23T04:14:24.924Z,101577.48
2022-08-23T04:15:28.149Z,101573.70
2022-08-23T04:16:36.199Z,101573.80
2022-08-23T04:17:40.597Z,101568.99
2022-08-23T04:18:43.462Z,101569.05
2022-08-23T04:19:46.568Z,101567.03
2022-08-23T04:20:49.886Z,101568.94
2022-08-23T04:21:56.553Z,101570.75
2022-08-23T04:23:00.906Z,101570.48
2022-08-23T04:24:06.382Z,101567.98
2022-08-23T04:25:33.539Z,101571.07
2022-08-23T04:26:33.700Z,101570.80
2022-08-23T04:27:36.624Z,101569.60
2022-08-23T04:28:40.030Z,101570.36
2022-08-23T04:29:42.873Z,101570.46
2022-08-23T04:30:46.846Z,101571.39
2022-08-23T04:31:51.211Z,101572.97
2022-08-23T04:32:54.238Z,101572.33
2022-08-23T04:33:58.477Z,101571.39
2022-08-23T04:35:04.247Z,101571.66
2022-08-23T04:36:07.422Z,101575.32
2022-08-23T04:37:10.498Z,101572.86
2022-08-23T04:38:24.220Z,101570.84
2022-08-23T04:39:28.925Z,101569.33
2022-08-23T04:40:51.198Z,101568.51
2022-08-23T04:42:14.899Z,101569.34
2022-08-23T04:43:18.346Z,101567.86
2022-08-23T04:44:21.365Z,101569.17
2022-08-23T04:45:27.171Z,101568.58
2022-08-23T04:46:30.010Z,101571.20
2022-08-23T04:47:34.976Z,101572.61
2022-08-23T04:48:38.016Z,101577.08
2022-08-23T04:49:41.408Z,101573.38
2022-08-23T04:50:44.522Z,101575.63
2022-08-23T04:51:53.614Z,101576.50
2022-08-23T04:52:57.663Z,101577.42
2022-08-23T04:54:00.647Z,101577.63
2022-08-23T04:55:26.098Z,101579.39
2022-08-23T04:56:42.008Z,101578.95
2022-08-23T04:57:45.814Z,101580.81
2022-08-23T04:58:51.575Z,101583.11
2022-08-23T04:59:54.331Z,101584.12
2022-08-23T05:00:59.250Z,101579.05
2022-08-23T05:02:03.597Z,101575.65
2022-08-23T05:03:06.667Z,101573.48
2022-08-23T05:04:10.028Z,101574.85
2022-08-23T05:05:14.075Z,101572.34
2022-08-23T05:06:19.335Z,101576.33
2022-08-23T05:07:31.024Z,101578.57
2022-08-23T05:08:45.219Z,101581.19
2022-08-23T05:09:48.068Z,101578.95
2022-08-23T05:10:51.075Z,101580.75
2022-08-23T05:11:54.382Z,101582.70
2022-08-23T05:12:57.968Z,101582.88
2022-08-23T05:14:00.916Z,101583.54
2022-08-23T05:15:04.453Z,101586.16
2022-08-23T05:16:07.998Z,101578.68
2022-08-23T05:17:14.741Z,101582.98
2022-08-23T05:18:17.859Z,101581.35
2022-08-23T05:19:20.733Z,101580.44
2022-08-23T05:20:23.711Z,101580.27
2022-08-23T05:21:26.690Z,101577.64
2022-08-23T05:22:32.810Z,101576.64
2022-08-23T05:24:05.239Z,101577.89
2022-08-23T05:25:08.579Z,101577.99
2022-08-23T05:26:12.213Z,101584.23
2022-08-23T05:27:17.411Z,101580.89
2022-08-23T05:28:25.552Z,101580.30
2022-08-23T05:29:28.634Z,101580.61
2022-08-23T05:30:31.359Z,101582.80
2022-08-23T05:31:34.539Z,101584.98
2022-08-23T05:32:39.770Z,101583.80
2022-08-23T05:33:45.014Z,101584.83
2022-08-23T05:34:48.076Z,101584.77
2022-08-23T05:35:51.235Z,101581.88
2022-08-23T05:36:55.437Z,101583.52
2022-08-23T05:38:03.496Z,101581.66
2022-08-23T05:39:06.611Z,101581.05
2022-08-23T05:40:11.141Z,101582.32
2022-08-23T05:41:21.214Z,101570.83
2022-08-23T05:42:24.678Z,101575.30
2022-08-23T05:43:29.635Z,101573.11
2022-08-23T05:44:36.226Z,101572.30
2022-08-23T05:45:40.214Z,101571.51
2022-08-23T05:46:43.630Z,101576.85
2022-08-23T05:48:13.489Z,101574.34
2022-08-23T05:49:24.828Z,101575.56
2022-08-23T05:50:29.278Z,101572.77
2022-08-23T05:51:35.274Z,101574.58
2022-08-23T05:52:38.576Z,101572.29
2022-08-23T05:53:42.863Z,101574.21
2022-08-23T05:54:45.843Z,101575.59
2022-08-23T05:56:15.074Z,101578.33
2022-08-23T05:57:18.186Z,101582.47
2022-08-23T05:58:21.055Z,101582.33
2022-08-23T05:59:24.078Z,101581.05
2022-08-23T06:00:37.306Z,101586.90
2022-08-23T06:01:44.569Z,101584.11
2022-08-23T06:02:53.029Z,101581.66
2022-08-23T06:03:58.391Z,101580.41
2022-08-23T06:05:01.955Z,101584.13
2022-08-23T06:06:04.829Z,101577.38
2022-08-23T06:07:09.833Z,101578.52
2022-08-23T06:08:12.547Z,101581.29
2022-08-23T06:09:16.731Z,101578.14
2022-08-23T06:10:21.470Z,101580.06
2022-08-23T06:11:37.265Z,101576.03
2022-08-23T06:12:41.685Z,101577.98
2022-08-23T06:13:46.221Z,101580.17
2022-08-23T06:14:49.454Z,101582.64
2022-08-23T06:15:52.583Z,101583.48
2022-08-23T06:16:56.347Z,101588.36
2022-08-23T06:18:02.734Z,101591.27
2022-08-23T06:19:07.202Z,101588.25
2022-08-23T06:20:25.162Z,101585.64
2022-08-23T06:21:38.606Z,101587.65
2022-08-23T06:22:41.952Z,101587.38
2022-08-23T06:23:47.006Z,101586.30
2022-08-23T06:24:50.778Z,101592.19
2022-08-23T06:25:53.511Z,101588.31
2022-08-23T06:26:57.411Z,101590.11
2022-08-23T06:28:00.389Z,101592.57
2022-08-23T06:29:07.955Z,101592.23
2022-08-23T06:30:12.473Z,101589.34
2022-08-23T06:31:41.458Z,101592.77
2022-08-23T06:32:50.275Z,101594.48
2022-08-23T06:34:09.039Z,101590.40
2022-08-23T06:35:38.794Z,101598.20
2022-08-23T06:37:08.241Z,101598.14
2022-08-23T06:38:37.571Z,101598.92
2022-08-23T06:39:47.679Z,101596.96
2022-08-23T06:41:09.033Z,101603.77
2022-08-23T06:42:38.982Z,101602.46
2022-08-23T06:43:44.366Z,101605.31
2022-08-23T06:44:56.105Z,101607.95
2022-08-23T06:46:13.105Z,101608.42
2022-08-23T06:47:16.911Z,101608.71
2022-08-23T06:48:23.249Z,101606.68
2022-08-23T06:49:27.881Z,101607.61
2022-08-23T06:50:32.424Z,101605.59
2022-08-23T06:51:56.422Z,101601.02
2022-08-23T06:53:21.090Z,101605.98
2022-08-23T06:54:36.482Z,101605.42
2022-08-23T06:56:01.973Z,101607.77
2022-08-23T06:57:20.564Z,101610.39
2022-08-23T06:58:42.009Z,101613.77
2022-08-23T07:00:05.621Z,101613.08
2022-08-23T07:01:44.617Z,101612.55
2022-08-23T07:03:07.368Z,101609.91
2022-08-23T07:04:39.864Z,101607.52
2022-08-23T07:05:45.032Z,101607.21
2022-08-23T07:06:56.959Z,101611.85
2022-08-23T07:07:59.854Z,101610.20
2022-08-23T07:09:03.749Z,101610.65
2022-08-23T07:10:06.948Z,101610.70
2022-08-23T07:11:11.373Z,101612.59
2022-08-23T07:12:17.045Z,101609.20
2022-08-23T07:13:20.510Z,101610.34
2022-08-23T07:14:23.568Z,101607.27
2022-08-23T07:15:26.522Z,101607.55
2022-08-23T07:16:33.346Z,101608.41
2022-08-23T07:17:36.060Z,101606.35
2022-08-23T07:18:39.136Z,101603.92
2022-08-23T07:19:44.153Z,101608.36
2022-08-23T07:20:46.997Z,101609.71
2022-08-23T07:21:50.075Z,101605.28
2022-08-23T07:22:53.001Z,101609.16
2022-08-23T07:23:55.921Z,101607.94
2022-08-23T07:24:58.747Z,101609.31
2022-08-23T07:26:02.922Z,101611.41
2022-08-23T07:27:07.309Z,101610.58
2022-08-23T07:28:12.370Z,101612.61
2022-08-23T07:29:17.567Z,101615.89
2022-08-23T07:30:20.473Z,101615.41
2022-08-23T07:31:27.332Z,101621.42
2022-08-23T07:32:30.287Z,101620.48
2022-08-23T07:33:34.474Z,101625.34
2022-08-23T07:34:50.733Z,101620.36
2022-08-23T07:35:54.028Z,101620.69
2022-08-23T07:36:57.280Z,101623.49
2022-08-23T07:38:00.620Z,101630.05
2022-08-23T07:39:09.896Z,101631.91
2022-08-23T07:40:21.820Z,101632.24
2022-08-23T07:41:54.062Z,101628.92
2022-08-23T07:42:57.363Z,101632.76
2022-08-23T07:44:02.751Z,101633.36
2022-08-23T07:45:06.951Z,101629.64
2022-08-23T07:46:13.012Z,101634.28
2022-08-23T07:47:16.399Z,101634.95
2022-08-23T07:48:37.099Z,101635.06
2022-08-23T07:49:56.663Z,101638.33
2022-08-23T07:51:01.318Z,101636.96
2022-08-23T07:52:05.421Z,101635.83
2022-08-23T07:53:08.420Z,101634.22
2022-08-23T07:54:11.521Z,101632.73
2022-08-23T07:55:29.193Z,101634.05
2022-08-23T07:57:04.369Z,101637.88
2022-08-23T07:58:26.581Z,101636.73
2022-08-23T07:59:38.623Z,101635.69
2022-08-23T08:00:55.748Z,101636.40
2022-08-23T08:02:08.315Z,101638.27
2022-08-23T08:03:11.913Z,101638.59
2022-08-23T08:04:30.681Z,101639.77
2022-08-23T08:05:34.066Z,101642.06
2022-08-23T08:06:46.312Z,101639.33
2022-08-23T08:07:49.188Z,101637.79
2022-08-23T08:08:52.472Z,101634.77
2022-08-23T08:09:55.195Z,101632.65
2022-08-23T08:11:00.459Z,101631.04
2022-08-23T08:12:03.792Z,101633.39
2022-08-23T08:13:07.347Z,101630.58
2022-08-23T08:14:11.137Z,101630.36
2022-08-23T08:15:18.421Z,101630.73
2022-08-23T08:16:28.398Z,101631.28
2022-08-23T08:17:32.057Z,101634.30
2022-08-23T08:18:54.265Z,101634.63
2022-08-23T08:20:15.655Z,101637.15
2022-08-23T08:21:21.609Z,101638.46
2022-08-23T08:22:34.802Z,101641.80
2022-08-23T08:23:46.752Z,101641.63
2022-08-23T08:25:08.975Z,101640.46
2022-08-23T08:26:11.988Z,101642.58
2022-08-23T08:27:22.260Z,101644.61
2022-08-23T08:28:25.431Z,101641.73
2022-08-23T08:29:28.322Z,101643.02
2022-08-23T08:30:31.134Z,101647.61
2022-08-23T08:31:36.404Z,101648.37
2022-08-23T08:32:46.944Z,101651.52
2022-08-23T08:33:50.666Z,101649.92
2022-08-23T08:34:54.274Z,101652.33
2022-08-23T08:35:59.391Z,101652.56
2022-08-23T08:37:04.834Z,101651.34
2022-08-23T08:38:07.856Z,101655.34
2022-08-23T08:39:12.190Z,101654.73
2022-08-23T08:40:17.820Z,101655.98
2022-08-23T08:41:26.475Z,101657.43
2022-08-23T08:42:44.402Z,101655.38
2022-08-23T08:43:50.032Z,101653.95
2022-08-23T08:45:01.323Z,101657.13
2022-08-23T08:46:08.956Z,101656.64
2022-08-23T08:47:19.311Z,101657.09
2022-08-23T08:48:23.883Z,101659.04
2022-08-23T08:49:39.060Z,101657.98
2022-08-23T08:50:47.436Z,101656.12
2022-08-23T08:51:53.701Z,101651.28
2022-08-23T08:53:15.000Z,101650.42
2022-08-23T08:54:37.602Z,101650.94
2022-08-23T08:55:46.271Z,101645.85
2022-08-23T08:56:51.923Z,101645.74
2022-08-23T08:58:00.015Z,101642.23
2022-08-23T08:59:06.527Z,101644.92
2022-08-23T09:00:15.552Z,101644.10
2022-08-23T09:01:20.571Z,101640.59
2022-08-23T09:02:32.611Z,101638.90
2022-08-23T09:03:36.912Z,101636.23
2022-08-23T09:04:39.845Z,101636.02
2022-08-23T09:05:52.672Z,101637.06
2022-08-23T09:07:02.689Z,101634.58
2022-08-23T09:08:13.016Z,101629.88
2022-08-23T09:09:19.221Z,101628.94
2022-08-23T09:10:25.473Z,101627.02
2022-08-23T09:12:05.271Z,101621.63
2022-08-23T09:13:11.457Z,101625.81
2022-08-23T09:14:29.778Z,101624.31
2022-08-23T09:15:36.665Z,101620.27
2022-08-23T09:16:49.490Z,101619.91
2022-08-23T09:17:55.009Z,101622.05
2022-08-23T09:19:01.238Z,101619.95
2022-08-23T09:20:06.405Z,101627.02
2022-08-23T09:21:10.083Z,101625.74
2022-08-23T09:22:17.162Z,101630.78
2022-08-23T09:23:23.413Z,101632.19
2022-08-23T09:24:28.293Z,101637.66
2022-08-23T09:25:37.413Z,101635.65
2022-08-23T09:26:45.518Z,101640.60
2022-08-23T09:27:48.325Z,101641.30
2022-08-23T09:28:53.100Z,101639.77
2022-08-23T09:29:58.172Z,101642.08
2022-08-23T09:31:00.973Z,101642.52
2022-08-23T09:32:06.159Z,101641.30
2022-08-23T09:33:15.507Z,101637.96
2022-08-23T09:34:21.103Z,101642.34
2022-08-23T09:35:38.714Z,101641.06
2022-08-23T09:36:42.245Z,101637.96
2022-08-23T09:37:59.393Z,101640.84
2022-08-23T09:39:07.405Z,101639.60
2022-08-23T09:40:19.371Z,101642.36
2022-08-23T09:41:25.171Z,101644.53
2022-08-23T09:42:37.282Z,101649.13
2022-08-23T09:43:44.892Z,101649.13
2022-08-23T09:44:47.745Z,101647.30
2022-08-23T09:45:51.007Z,101646.63
2022-08-23T09:47:05.185Z,101646.55
2022-08-23T09:48:12.330Z,101644.06
2022-08-23T09:49:28.082Z,101642.55
2022-08-23T09:50:42.283Z,101643.45
2022-08-23T09:51:45.376Z,101645.25
2022-08-23T09:52:54.889Z,101645.80
2022-08-23T09:54:10.398Z,101644.09
2022-08-23T09:55:26.911Z,101645.96
2022-08-23T09:56:32.038Z,101643.50
2022-08-23T09:57:35.383Z,101642.61
2022-08-23T09:58:40.681Z,101645.52
2022-08-23T09:59:45.913Z,101643.13
2022-08-23T10:01:11.457Z,101648.59
2022-08-23T10:02:24.233Z,101649.39
2022-08-23T10:03:30.664Z,101649.73
2022-08-23T10:04:47.327Z,101650.17
2022-08-23T10:05:52.687Z,101645.76
2022-08-23T10:06:56.428Z,101647.84
2022-08-23T10:08:01.048Z,101646.59
2022-08-23T10:09:05.834Z,101649.14
2022-08-23T10:10:15.077Z,101646.66
2022-08-23T10:11:24.149Z,101645.09
2022-08-23T10:12:27.031Z,101645.64
2022-08-23T10:13:30.815Z,101646.03
2022-08-23T10:14:33.967Z,101644.66
2022-08-23T10:15:39.797Z,101645.52
2022-08-23T10:16:51.764Z,101643.98
2022-08-23T10:17:58.994Z,101644.73
2022-08-23T10:19:04.599Z,101645.61
2022-08-23T10:20:10.520Z,101643.56
2022-08-23T10:21:33.100Z,101641.52
2022-08-23T10:22:42.431Z,101640.00
2022-08-23T10:24:16.931Z,101638.19
2022-08-23T10:25:27.094Z,101644.11
2022-08-23T10:26:32.677Z,101643.08
2022-08-23T10:28:00.517Z,101643.58
2022-08-23T10:29:22.150Z,101642.82
2022-08-23T10:30:33.944Z,101645.78
2022-08-23T10:31:59.021Z,101647.45
2022-08-23T10:33:22.144Z,101649.45
2022-08-23T10:34:47.117Z,101652.67
2022-08-23T10:36:01.162Z,101655.39
2022-08-23T10:37:09.590Z,101652.62
2022-08-23T10:38:31.251Z,101653.80
2022-08-23T10:39:39.769Z,101654.14
2022-08-23T10:41:01.169Z,101651.49
2022-08-23T10:42:17.022Z,101653.27
2022-08-23T10:43:31.749Z,101652.16
2022-08-23T10:44:46.441Z,101653.34
2022-08-23T10:45:50.167Z,101654.23
2022-08-23T10:47:14.155Z,101654.66
2022-08-23T10:48:26.800Z,101658.27
2022-08-23T10:49:31.371Z,101656.39
2022-08-23T10:50:56.425Z,101653.54
2022-08-23T10:52:00.101Z,101656.79
2022-08-23T10:53:15.935Z,101652.54
2022-08-23T10:54:34.403Z,101653.75
2022-08-23T10:56:02.843Z,101655.27
2022-08-23T10:57:07.647Z,101651.29
2022-08-23T10:58:22.714Z,101651.51
2022-08-23T10:59:26.289Z,101649.80
2022-08-23T11:00:32.031Z,101649.89
2022-08-23T11:01:43.180Z,101649.84
2022-08-23T11:03:00.159Z,101649.30
2022-08-23T11:04:21.730Z,101651.27
2022-08-23T11:05:37.293Z,101649.95
2022-08-23T11:06:54.773Z,101652.46
2022-08-23T11:07:59.944Z,101652.91
2022-08-23T11:09:06.342Z,101657.27
2022-08-23T11:10:18.292Z,101655.11
2022-08-23T11:11:39.482Z,101648.87
2022-08-23T11:12:53.328Z,101649.36
2022-08-23T11:13:56.315Z,101649.59
2022-08-23T11:15:04.881Z,101647.09
2022-08-23T11:16:13.853Z,101650.55
2022-08-23T11:17:25.415Z,101652.09
2022-08-23T11:18:34.766Z,101650.77
2022-08-23T11:19:49.089Z,101647.93
2022-08-23T11:20:53.124Z,101650.16
2022-08-23T11:22:18.111Z,101652.20
2022-08-23T11:23:39.432Z,101646.84
2022-08-23T11:24:56.941Z,101645.55
2022-08-23T11:26:00.749Z,101644.85
2022-08-23T11:27:06.542Z,101645.16
2022-08-23T11:28:30.781Z,101644.91
2022-08-23T11:29:35.408Z,101646.60
2022-08-23T11:31:07.754Z,101643.90
2022-08-23T11:32:29.817Z,101646.23
2022-08-23T11:33:52.447Z,101647.32
2022-08-23T11:34:55.509Z,101645.34
2022-08-23T11:36:21.868Z,101646.45
2022-08-23T11:37:27.238Z,101644.52
2022-08-23T11:38:48.439Z,101646.84
2022-08-23T11:39:58.169Z,101644.81
2022-08-23T11:41:12.645Z,101633.83
2022-08-23T11:42:19.193Z,101638.08
2022-08-23T11:43:49.821Z,101639.47
2022-08-23T11:44:53.824Z,101638.15
2022-08-23T11:46:15.814Z,101637.73
2022-08-23T11:47:27.476Z,101643.73
2022-08-23T11:48:36.288Z,101640.50
2022-08-23T11:49:39.067Z,101638.41
2022-08-23T11:50:57.721Z,101644.40
2022-08-23T11:52:04.351Z,101645.83
2022-08-23T11:53:16.863Z,101644.55
2022-08-23T11:54:39.445Z,101644.32
2022-08-23T11:55:54.589Z,101643.37
2022-08-23T11:57:07.764Z,101645.29
2022-08-23T11:58:26.461Z,101644.41
2022-08-23T11:59:35.022Z,101643.80
2022-08-23T12:00:50.395Z,101639.75
2022-08-23T12:01:53.145Z,101640.98
2022-08-23T12:03:02.559Z,101642.75
2022-08-23T12:04:14.588Z,101641.34
2022-08-23T12:05:32.603Z,101645.42
2022-08-23T12:06:43.507Z,101644.30
2022-08-23T12:08:14.277Z,101642.27
2022-08-23T12:09:20.028Z,101647.58
2022-08-23T12:10:42.957Z,101647.98
2022-08-23T12:11:48.633Z,101642.16
2022-08-23T12:13:14.802Z,101647.00
2022-08-23T12:14:36.646Z,101644.42
2022-08-23T12:16:02.192Z,101643.99
2022-08-23T12:17:26.626Z,101639.63
2022-08-23T12:18:33.179Z,101644.17
2022-08-23T12:19:44.331Z,101644.81
2022-08-23T12:20:48.357Z,101643.92
2022-08-23T12:21:52.245Z,101648.18
2022-08-23T12:22:58.109Z,101644.19
2022-08-23T12:24:03.390Z,101639.77
2022-08-23T12:25:07.604Z,101643.91
2022-08-23T12:26:20.524Z,101639.83
2022-08-23T12:27:32.575Z,101644.02
2022-08-23T12:28:40.201Z,101643.71
2022-08-23T12:29:55.043Z,101642.78
2022-08-23T12:30:58.556Z,101642.45
2022-08-23T12:32:07.356Z,101641.94
2022-08-23T12:33:25.376Z,101645.64
2022-08-23T12:34:37.309Z,101645.40
2022-08-23T12:35:47.112Z,101644.29
2022-08-23T12:36:50.152Z,101646.36
2022-08-23T12:37:59.887Z,101646.09
2022-08-23T12:39:08.799Z,101646.02
2022-08-23T12:40:17.493Z,101638.63
2022-08-23T12:41:31.508Z,101641.45
2022-08-23T12:42:36.872Z,101640.45
2022-08-23T12:43:53.018Z,101642.39
2022-08-23T12:45:05.269Z,101637.61
2022-08-23T12:46:08.111Z,101639.42
2022-08-23T12:47:17.317Z,101641.33
2022-08-23T12:48:21.604Z,101643.45
2022-08-23T12:49:29.053Z,101633.02
2022-08-23T12:50:34.825Z,101634.55
2022-08-23T12:51:41.815Z,101633.27
2022-08-23T12:52:55.312Z,101632.59
2022-08-23T12:54:12.223Z,101633.67
2022-08-23T12:55:16.814Z,101629.59
2022-08-23T12:56:22.863Z,101631.74
2022-08-23T12:57:37.285Z,101628.78
2022-08-23T12:58:45.509Z,101632.34
2022-08-23T12:59:56.592Z,101635.23
2022-08-23T13:01:18.369Z,101629.23
2022-08-23T13:02:26.409Z,101635.31